Time;durP1;ratioP1;P1;durP2;ratioP2;P2;SDS_P1;SDS_P2;PMS_P1;PMS_P2;Temp;Humidity;BMP_temperature;BMP_pressure;BME280_temperature;BME280_humidity;BME280_pressure;Samples;Min_cycle;Max_cycle;Signal;HPM_P1;HPM_P2
2021/01/01 00:05:45;;;;;;;22.50;11.57;;;2.10;99.90;;;;;;6747892;88;20209;-73
2021/01/01 00:15:45;;;;;;;19.17;10.20;;;2.40;99.90;;;;;;6747781;88;20227;-73
2021/01/01 00:25:46;;;;;;;20.05;11.20;;;2.40;99.90;;;;;;6761617;87;20685;-72
2021/01/01 00:35:46;;;;;;;30.85;15.27;;;2.40;99.90;;;;;;6749463;88;20208;-74
2021/01/01 00:45:47;;;;;;;34.05;16.73;;;2.30;99.90;;;;;;6757567;87;20599;-73
2021/01/01 00:55:47;;;;;;;35.00;16.52;;;2.40;99.90;;;;;;6751745;87;20353;-75
2021/01/01 01:05:48;;;;;;;38.40;17.60;;;2.40;99.90;;;;;;6754071;87;20202;-74
2021/01/01 01:15:49;;;;;;;40.95;19.08;;;2.40;99.90;;;;;;6753506;87;20292;-76
2021/01/01 01:25:49;;;;;;;40.67;19.62;;;2.60;99.90;;;;;;6749743;87;20290;-74
2021/01/01 01:35:50;;;;;;;47.35;21.30;;;2.60;99.90;;;;;;6742953;87;20287;-74
2021/01/01 01:45:53;;;;;;;47.93;21.93;;;2.60;99.90;;;;;;6746444;87;20240;-74
2021/01/01 01:55:55;;;;;;;52.55;23.70;;;2.60;99.90;;;;;;6754304;87;20493;-74
2021/01/01 02:05:56;;;;;;;55.17;23.67;;;2.60;99.90;;;;;;6751284;87;20655;-74
2021/01/01 02:15:57;;;;;;;53.95;23.52;;;2.70;99.90;;;;;;6755701;88;20196;-74
2021/01/01 02:25:58;;;;;;;48.30;22.17;;;2.70;99.90;;;;;;6756174;87;20246;-74
2021/01/01 02:35:58;;;;;;;49.65;24.10;;;2.70;99.90;;;;;;6755140;87;20196;-73
2021/01/01 02:45:59;;;;;;;57.88;24.83;;;2.80;99.90;;;;;;6754032;87;20647;-74
2021/01/01 02:55:59;;;;;;;52.22;24.17;;;2.90;99.90;;;;;;6748636;87;20282;-75
2021/01/01 03:06:00;;;;;;;56.37;24.33;;;2.80;99.90;;;;;;6749778;87;20773;-75
2021/01/01 03:16:00;;;;;;;52.17;23.33;;;2.90;99.90;;;;;;6749904;87;20192;-75
2021/01/01 03:26:01;;;;;;;50.90;22.85;;;2.90;99.90;;;;;;6753838;87;20304;-75
2021/01/01 03:36:03;;;;;;;48.33;21.37;;;3.00;99.90;;;;;;6756295;87;20208;-75
2021/01/01 03:46:04;;;;;;;43.50;19.10;;;3.10;99.90;;;;;;6755746;88;20583;-74
2021/01/01 03:56:05;;;;;;;48.42;20.80;;;3.00;99.90;;;;;;6752350;87;20314;-74
2021/01/01 04:06:06;;;;;;;48.05;21.10;;;3.00;99.90;;;;;;6747305;87;20203;-75
2021/01/01 04:16:07;;;;;;;50.28;21.00;;;3.00;99.90;;;;;;6750354;87;20660;-74
2021/01/01 04:26:10;;;;;;;55.33;23.23;;;3.00;99.90;;;;;;6741789;88;20989;-75
2021/01/01 04:36:10;;;;;;;55.88;22.45;;;3.00;99.90;;;;;;6742900;88;20177;-75
2021/01/01 04:46:11;;;;;;;65.95;24.92;;;3.00;99.90;;;;;;6748469;87;20183;-74
2021/01/01 04:56:12;;;;;;;70.18;26.48;;;3.00;99.90;;;;;;6750553;87;20624;-74
2021/01/01 05:06:12;;;;;;;65.18;24.27;;;3.00;99.90;;;;;;6752441;87;20398;-74
2021/01/01 05:16:19;;;;;;;66.53;24.12;;;2.90;99.90;;;;;;6754796;87;20261;-76
2021/01/01 05:26:19;;;;;;;64.28;24.25;;;2.90;99.90;;;;;;6755693;87;20197;-74
2021/01/01 05:36:43;;;;;;;67.07;23.65;;;2.80;99.90;;;;;;6754096;87;20185;-73
2021/01/01 05:47:06;;;;;;;69.10;24.70;;;2.80;99.90;;;;;;6761054;88;20241;-73
2021/01/01 05:57:09;;;;;;;60.85;24.45;;;2.80;99.90;;;;;;6750161;87;20220;-74
2021/01/01 06:07:11;;;;;;;64.78;23.48;;;2.90;99.90;;;;;;6761083;88;20185;-74
2021/01/01 06:17:11;;;;;;;59.80;23.62;;;2.90;99.90;;;;;;6753956;87;20215;-74
2021/01/01 06:27:13;;;;;;;56.40;21.95;;;2.90;99.90;;;;;;6751983;88;20202;-74
2021/01/01 06:37:35;;;;;;;56.97;22.40;;;2.90;99.90;;;;;;6749126;88;20256;-73
2021/01/01 06:47:43;;;;;;;58.45;20.70;;;2.80;99.90;;;;;;6754598;88;20184;-74
2021/01/01 06:57:49;;;;;;;52.35;19.48;;;2.80;99.90;;;;;;6756763;87;20227;-73
2021/01/01 07:07:50;;;;;;;49.13;20.10;;;2.80;99.90;;;;;;6755384;88;20192;-73
2021/01/01 07:17:50;;;;;;;50.97;19.85;;;2.80;99.90;;;;;;6749198;87;20184;-73
2021/01/01 07:27:52;;;;;;;50.03;19.27;;;2.70;99.90;;;;;;6752169;88;20172;-73
2021/01/01 07:37:53;;;;;;;51.40;19.90;;;2.80;99.90;;;;;;6755149;88;20436;-74
2021/01/01 07:47:54;;;;;;;49.83;19.62;;;2.70;99.90;;;;;;6752697;88;21088;-73
2021/01/01 07:58:19;;;;;;;45.95;20.02;;;2.80;99.90;;;;;;6755267;88;20975;-73
2021/01/01 08:08:25;;;;;;;45.28;18.33;;;2.70;99.90;;;;;;6752364;87;20653;-73
2021/01/01 08:18:27;;;;;;;44.72;17.73;;;2.80;99.90;;;;;;6750683;87;20203;-73
2021/01/01 08:28:28;;;;;;;38.25;16.73;;;2.80;99.90;;;;;;6752724;88;20199;-73
2021/01/01 08:38:29;;;;;;;38.60;16.30;;;2.80;99.90;;;;;;6753874;88;20295;-72
2021/01/01 08:48:29;;;;;;;40.28;15.38;;;2.90;99.90;;;;;;6753207;87;20206;-73
2021/01/01 08:58:30;;;;;;;36.78;14.55;;;2.80;99.90;;;;;;6743396;87;20639;-73
2021/01/01 09:08:30;;;;;;;35.05;14.07;;;2.90;99.90;;;;;;6748433;88;20230;-74
2021/01/01 09:18:31;;;;;;;34.33;13.77;;;3.10;99.90;;;;;;6750147;87;20666;-73
2021/01/01 09:28:33;;;;;;;34.40;14.23;;;3.00;99.90;;;;;;6748510;87;20193;-73
2021/01/01 09:38:33;;;;;;;33.22;13.90;;;3.10;99.90;;;;;;6748011;87;20459;-74
2021/01/01 09:48:34;;;;;;;31.40;13.98;;;3.20;99.90;;;;;;6753894;87;20699;-74
2021/01/01 09:58:34;;;;;;;33.78;14.70;;;3.30;99.90;;;;;;6738688;88;20314;-73
2021/01/01 10:08:35;;;;;;;35.40;14.20;;;3.20;99.90;;;;;;6750106;87;20629;-73
2021/01/01 10:18:36;;;;;;;31.37;13.73;;;3.40;99.90;;;;;;6733495;88;20219;-72
2021/01/01 10:28:37;;;;;;;29.95;13.73;;;3.50;99.90;;;;;;6737673;88;20187;-75
2021/01/01 10:38:37;;;;;;;30.42;13.18;;;3.50;99.90;;;;;;6749427;88;20193;-72
2021/01/01 10:48:38;;;;;;;35.95;14.57;;;3.50;99.90;;;;;;6732725;87;20234;-75
2021/01/01 10:58:38;;;;;;;30.95;13.62;;;3.60;99.90;;;;;;6739469;88;20189;-74
2021/01/01 11:08:40;;;;;;;32.95;13.75;;;3.70;99.90;;;;;;6752767;88;20252;-74
2021/01/01 12:21:13;;;;;;;34.17;15.73;;;4.30;99.90;;;;;;6739088;88;20700;-73
2021/01/01 12:31:14;;;;;;;36.60;14.50;;;4.20;99.90;;;;;;6749454;88;20197;-73
2021/01/01 12:41:14;;;;;;;34.03;13.90;;;4.40;99.90;;;;;;6734274;88;20323;-74
2021/01/01 12:51:15;;;;;;;33.22;13.15;;;4.70;99.90;;;;;;6741068;88;20377;-74
2021/01/01 13:01:15;;;;;;;24.63;11.60;;;6.10;99.90;;;;;;6745858;87;20198;-73
2021/01/01 13:11:16;;;;;;;23.73;11.67;;;7.20;99.90;;;;;;6736910;88;20205;-73
2021/01/01 13:21:27;;;;;;;22.60;10.13;;;9.50;99.90;;;;;;6739013;88;20533;-72
2021/01/01 13:31:41;;;;;;;20.48;10.23;;;9.70;99.90;;;;;;6737388;88;20201;-76
2021/01/01 13:41:41;;;;;;;20.17;9.55;;;8.70;99.90;;;;;;6735880;88;20232;-73
2021/01/01 13:51:42;;;;;;;23.05;9.23;;;8.40;99.90;;;;;;6737695;87;20223;-73
2021/01/01 14:01:42;;;;;;;18.70;9.02;;;7.50;99.90;;;;;;6746927;88;20180;-72
2021/01/01 14:11:50;;;;;;;17.45;8.10;;;7.80;99.90;;;;;;6735926;88;20205;-75
2021/01/01 14:21:51;;;;;;;19.42;8.02;;;7.40;99.90;;;;;;6742187;88;20176;-74
2021/01/01 14:31:51;;;;;;;19.65;8.88;;;6.20;99.90;;;;;;6725279;88;20218;-78
2021/01/01 14:41:53;;;;;;;20.42;8.93;;;5.90;99.90;;;;;;6743467;87;20193;-75
2021/01/01 14:51:54;;;;;;;19.48;8.43;;;5.70;99.90;;;;;;6742240;88;20345;-76
2021/01/01 15:01:54;;;;;;;19.33;8.25;;;5.40;99.90;;;;;;6738223;87;20282;-74
2021/01/01 15:11:55;;;;;;;19.10;8.60;;;5.40;99.90;;;;;;6744483;88;20873;-74
2021/01/01 15:21:56;;;;;;;21.70;9.30;;;5.20;99.90;;;;;;6740540;88;20190;-72
2021/01/01 15:31:57;;;;;;;23.27;9.68;;;5.20;99.90;;;;;;6743660;87;20300;-74
2021/01/01 15:41:57;;;;;;;23.80;10.30;;;4.90;99.90;;;;;;6732683;77;20760;-75
2021/01/01 15:51:59;;;;;;;22.45;8.50;;;4.60;99.90;;;;;;6725834;88;20671;-73
2021/01/01 16:02:00;;;;;;;18.67;8.32;;;4.50;99.90;;;;;;6728722;88;20303;-72
2021/01/01 16:12:00;;;;;;;19.85;9.00;;;4.30;99.90;;;;;;6726714;88;20173;-72
2021/01/01 16:22:02;;;;;;;20.08;8.13;;;4.10;99.90;;;;;;6741275;88;20695;-72
2021/01/01 16:32:04;;;;;;;18.95;7.70;;;4.00;99.90;;;;;;6727960;88;20203;-72
2021/01/01 16:42:05;;;;;;;16.67;7.50;;;3.90;99.90;;;;;;6726134;88;20727;-74
2021/01/01 16:52:07;;;;;;;17.92;7.15;;;3.90;99.90;;;;;;6723672;88;20287;-72
2021/01/01 17:02:07;;;;;;;17.25;6.60;;;4.00;99.90;;;;;;6728544;88;20364;-71
2021/01/01 17:12:08;;;;;;;18.02;7.10;;;3.90;99.90;;;;;;6731876;88;20402;-75
2021/01/01 17:22:09;;;;;;;15.43;7.35;;;3.70;99.90;;;;;;6739700;88;20192;-74
2021/01/01 17:32:09;;;;;;;15.75;7.25;;;3.70;99.90;;;;;;6737264;88;20181;-74
2021/01/01 17:42:10;;;;;;;14.98;7.32;;;3.70;99.90;;;;;;6735775;88;20213;-74
2021/01/01 17:52:10;;;;;;;14.95;6.68;;;3.80;99.90;;;;;;6729778;88;20192;-73
2021/01/01 18:02:11;;;;;;;15.63;7.22;;;3.70;99.90;;;;;;6727363;88;20231;-76
2021/01/01 18:12:11;;;;;;;18.02;6.97;;;3.70;99.90;;;;;;6733021;88;20241;-75
2021/01/01 18:22:13;;;;;;;15.75;7.35;;;3.40;99.90;;;;;;6726238;88;20317;-70
2021/01/01 18:32:17;;;;;;;13.90;7.05;;;3.40;99.90;;;;;;6728041;88;20226;-70
2021/01/01 18:42:24;;;;;;;17.50;7.50;;;3.20;99.90;;;;;;6733966;87;20193;-77
2021/01/01 18:52:25;;;;;;;17.40;7.55;;;3.10;99.90;;;;;;6734594;88;20974;-76
2021/01/01 19:02:38;;;;;;;17.33;7.72;;;2.90;99.90;;;;;;6726719;88;20260;-75
2021/01/01 19:12:40;;;;;;;17.50;7.30;;;3.00;99.90;;;;;;6725986;88;20184;-73
2021/01/01 19:22:50;;;;;;;18.95;8.43;;;2.60;99.90;;;;;;6726371;88;20188;-72
2021/01/01 19:33:02;;;;;;;23.08;9.50;;;2.70;99.90;;;;;;6720097;88;20242;-74
2021/01/01 19:43:37;;;;;;;22.15;10.27;;;2.50;99.90;;;;;;6734935;88;21032;-72
2021/01/01 19:54:20;;;;;;;19.30;9.82;;;2.30;99.90;;;;;;6742337;88;20699;-73
2021/01/01 20:04:31;;;;;;;19.70;8.43;;;2.10;99.90;;;;;;6728020;88;20238;-74
2021/01/01 20:14:34;;;;;;;29.30;11.10;;;2.10;99.90;;;;;;6732308;88;20169;-73
2021/01/01 20:24:38;;;;;;;21.50;10.05;;;1.70;99.90;;;;;;6737231;88;20203;-74
2021/01/01 20:34:42;;;;;;;28.02;11.25;;;1.60;99.90;;;;;;6758553;88;20299;-73
2021/01/01 20:45:18;;;;;;;28.83;11.60;;;1.40;99.90;;;;;;6732388;88;20209;-72
2021/01/01 20:56:38;;;;;;;22.15;10.20;;;1.40;99.90;;;;;;6743513;88;20176;-74
2021/01/01 21:06:04;;;;;;;25.08;11.07;;;1.10;99.90;;;;;;6745195;88;20262;-72
2021/01/01 21:16:10;;;;;;;22.17;10.37;;;0.90;99.90;;;;;;6742401;88;20185;-73
2021/01/01 21:26:38;;;;;;;27.15;10.95;;;0.80;99.90;;;;;;6746808;88;20489;-73
2021/01/01 21:37:31;;;;;;;24.00;9.98;;;0.80;99.90;;;;;;6743845;88;20176;-71
2021/01/01 21:47:43;;;;;;;24.12;10.27;;;0.70;99.90;;;;;;6742713;87;20302;-72
2021/01/01 21:57:43;;;;;;;20.80;9.77;;;0.70;99.90;;;;;;6745412;88;20217;-71
2021/01/01 22:07:44;;;;;;;20.45;9.32;;;0.70;99.90;;;;;;6744335;77;20679;-74
2021/01/01 22:17:45;;;;;;;21.48;8.95;;;0.80;99.90;;;;;;6737304;88;20209;-73
2021/01/01 22:27:45;;;;;;;22.13;9.10;;;0.80;99.90;;;;;;6742162;88;20234;-74
2021/01/01 22:37:46;;;;;;;19.90;9.00;;;0.70;99.90;;;;;;6747468;88;20205;-74
2021/01/01 22:47:46;;;;;;;18.40;8.13;;;0.80;99.90;;;;;;6745141;88;20689;-74
2021/01/01 22:57:52;;;;;;;21.27;8.90;;;0.80;99.90;;;;;;6742533;88;20219;-75
2021/01/01 23:07:54;;;;;;;18.60;8.63;;;0.90;99.90;;;;;;6748432;88;20589;-76
2021/01/01 23:17:58;;;;;;;18.80;8.02;;;1.10;99.90;;;;;;6772653;88;21103;-80
2021/01/01 23:28:21;;;;;;;18.52;8.70;;;1.20;99.90;;;;;;6762771;88;20192;-80
2021/01/01 23:38:49;;;;;;;18.37;8.07;;;1.40;99.90;;;;;;6764044;88;20187;-80
2021/01/01 23:48:54;;;;;;;20.35;8.55;;;1.40;99.90;;;;;;6766591;88;20149;-81
2021/01/01 23:58:56;;;;;;;17.40;8.13;;;1.60;99.90;;;;;;6767961;88;21152;-82
